Time;durP1;ratioP1;P1;durP2;ratioP2;P2;SDS_P1;SDS_P2;PMS_P1;PMS_P2;Temp;Humidity;BMP_temperature;BMP_pressure;BME280_temperature;BME280_humidity;BME280_pressure;Samples;Min_cycle;Max_cycle;Signal;HPM_P1;HPM_P2
2024/01/12 00:02:14;;;;;;;55.50;25.50;;;;;;;;;;5071915;28;20249;-46
2024/01/12 00:04:41;;;;;;;49.97;25.60;;;;;;;;;;5072213;28;20544;-46
2024/01/12 00:07:07;;;;;;;44.60;22.40;;;;;;;;;;5071939;28;20473;-46
2024/01/12 00:09:33;;;;;;;45.80;22.80;;;;;;;;;;5072230;28;20852;-46
2024/01/12 00:11:59;;;;;;;47.30;23.07;;;;;;;;;;5071955;28;20235;-46
2024/01/12 00:14:25;;;;;;;43.33;22.33;;;;;;;;;;5071517;28;20457;-46
2024/01/12 00:16:51;;;;;;;42.93;23.07;;;;;;;;;;5071948;28;20716;-46
2024/01/12 00:19:19;;;;;;;48.77;23.93;;;;;;;;;;5070862;28;20470;-46
2024/01/12 00:21:46;;;;;;;47.97;23.03;;;;;;;;;;5072039;28;20234;-46
2024/01/12 00:24:12;;;;;;;44.17;21.67;;;;;;;;;;5071872;28;20492;-46
2024/01/12 00:26:38;;;;;;;44.60;22.90;;;;;;;;;;5071649;28;20426;-46
2024/01/12 00:29:04;;;;;;;44.00;22.20;;;;;;;;;;5071577;28;20277;-46
2024/01/12 00:31:30;;;;;;;45.50;23.87;;;;;;;;;;5072142;28;20481;-46
2024/01/12 00:33:56;;;;;;;50.93;24.83;;;;;;;;;;5071819;28;20772;-46
2024/01/12 00:36:22;;;;;;;56.60;25.90;;;;;;;;;;5071655;28;20202;-46
2024/01/12 00:38:50;;;;;;;50.43;26.43;;;;;;;;;;5071592;28;20236;-47
2024/01/12 00:41:15;;;;;;;45.77;24.07;;;;;;;;;;5071590;28;20728;-46
2024/01/12 00:43:42;;;;;;;48.10;24.53;;;;;;;;;;5071847;28;20466;-46
2024/01/12 00:46:08;;;;;;;46.13;22.90;;;;;;;;;;5071585;28;20226;-46
2024/01/12 00:48:34;;;;;;;43.10;21.80;;;;;;;;;;5071840;28;20434;-46
2024/01/12 00:51:00;;;;;;;45.67;22.20;;;;;;;;;;5071514;28;20430;-46
2024/01/12 00:53:25;;;;;;;41.17;20.97;;;;;;;;;;5071407;28;20692;-47
2024/01/12 00:55:53;;;;;;;41.70;21.17;;;;;;;;;;5071833;28;20445;-47
2024/01/12 00:58:19;;;;;;;43.80;20.77;;;;;;;;;;5071459;28;20223;-46
2024/01/12 01:00:45;;;;;;;47.73;21.90;;;;;;;;;;5071586;28;21026;-46
2024/01/12 01:03:11;;;;;;;45.03;22.23;;;;;;;;;;5071074;28;20203;-47
2024/01/12 01:05:37;;;;;;;62.03;25.30;;;;;;;;;;5071708;28;20207;-46
2024/01/12 01:08:03;;;;;;;52.80;24.10;;;;;;;;;;5070929;28;20488;-46
2024/01/12 01:10:29;;;;;;;49.13;23.83;;;;;;;;;;5071535;28;20191;-47
2024/01/12 01:12:56;;;;;;;47.27;22.53;;;;;;;;;;5071450;28;21150;-47
2024/01/12 01:15:22;;;;;;;49.23;23.43;;;;;;;;;;5070838;28;20192;-47
2024/01/12 01:17:49;;;;;;;47.90;24.57;;;;;;;;;;5071399;28;20968;-47
2024/01/12 01:20:16;;;;;;;41.17;23.13;;;;;;;;;;5071407;28;20227;-46
2024/01/12 01:22:42;;;;;;;48.30;24.83;;;;;;;;;;5071400;28;20491;-46
2024/01/12 01:25:08;;;;;;;43.77;23.97;;;;;;;;;;5070802;28;20438;-46
2024/01/12 01:27:34;;;;;;;47.60;23.87;;;;;;;;;;5070998;28;20570;-46
2024/01/12 01:30:01;;;;;;;51.13;24.40;;;;;;;;;;5072041;28;20199;-46
2024/01/12 01:32:27;;;;;;;48.77;22.97;;;;;;;;;;5075343;28;20211;-47
2024/01/12 01:34:53;;;;;;;48.47;23.03;;;;;;;;;;5071397;28;20434;-47
2024/01/12 01:37:19;;;;;;;43.77;22.33;;;;;;;;;;5075009;28;20206;-47
2024/01/12 01:39:45;;;;;;;49.93;23.47;;;;;;;;;;5075019;28;20832;-48
2024/01/12 01:42:11;;;;;;;42.63;21.73;;;;;;;;;;5074970;28;20242;-48
2024/01/12 01:44:37;;;;;;;40.23;22.43;;;;;;;;;;5074961;28;20566;-48
2024/01/12 01:47:05;;;;;;;42.93;21.40;;;;;;;;;;5074824;28;20210;-48
2024/01/12 01:49:31;;;;;;;45.20;21.83;;;;;;;;;;5075096;28;20225;-48
2024/01/12 01:51:57;;;;;;;46.73;19.47;;;;;;;;;;5074840;28;20441;-47
2024/01/12 01:54:23;;;;;;;39.70;19.60;;;;;;;;;;5074614;28;20225;-47
2024/01/12 01:56:49;;;;;;;51.00;19.80;;;;;;;;;;5074722;28;20437;-48
2024/01/12 01:59:16;;;;;;;34.97;17.57;;;;;;;;;;5074770;28;20491;-47
2024/01/12 02:01:42;;;;;;;35.33;17.40;;;;;;;;;;5074649;28;20432;-48
2024/01/12 02:04:10;;;;;;;38.17;15.70;;;;;;;;;;5074605;28;20916;-47
2024/01/12 02:06:36;;;;;;;33.87;17.47;;;;;;;;;;5074487;28;21281;-49
2024/01/12 02:09:04;;;;;;;27.77;13.27;;;;;;;;;;5074565;28;20446;-49
2024/01/12 02:11:30;;;;;;;26.57;13.33;;;;;;;;;;5074546;28;20275;-48
2024/01/12 02:13:56;;;;;;;28.20;11.87;;;;;;;;;;5074382;28;20952;-47
2024/01/12 02:16:22;;;;;;;25.00;10.60;;;;;;;;;;5074237;28;20203;-49
2024/01/12 02:18:48;;;;;;;19.13;9.37;;;;;;;;;;5074300;28;20446;-49
2024/01/12 02:21:15;;;;;;;23.40;9.83;;;;;;;;;;5073929;28;20486;-49
2024/01/12 02:23:41;;;;;;;18.07;9.43;;;;;;;;;;5074182;28;20575;-49
2024/01/12 02:26:07;;;;;;;16.53;9.60;;;;;;;;;;5073904;28;20442;-49
2024/01/12 02:28:34;;;;;;;16.93;9.10;;;;;;;;;;5073934;28;20624;-49
2024/01/12 02:31:00;;;;;;;17.30;9.20;;;;;;;;;;5073946;28;20430;-49
2024/01/12 02:33:26;;;;;;;18.03;9.70;;;;;;;;;;5074016;28;20442;-49
2024/01/12 02:35:52;;;;;;;23.37;12.50;;;;;;;;;;5073775;28;20483;-49
2024/01/12 02:38:19;;;;;;;22.73;11.53;;;;;;;;;;5073629;28;20195;-48
2024/01/12 02:40:45;;;;;;;33.03;13.60;;;;;;;;;;5073984;28;20568;-49
2024/01/12 02:43:11;;;;;;;27.17;13.47;;;;;;;;;;5072663;28;20517;-49
2024/01/12 02:45:37;;;;;;;19.40;11.40;;;;;;;;;;5073685;28;20206;-49
2024/01/12 02:48:04;;;;;;;15.70;9.67;;;;;;;;;;5072276;28;20438;-49
2024/01/12 02:50:30;;;;;;;18.07;9.73;;;;;;;;;;5073677;28;20206;-49
2024/01/12 02:52:56;;;;;;;18.67;9.77;;;;;;;;;;5073490;28;20855;-48
2024/01/12 02:55:23;;;;;;;15.60;9.53;;;;;;;;;;5073299;28;20688;-48
2024/01/12 02:57:49;;;;;;;15.67;10.00;;;;;;;;;;5073315;28;20438;-48
2024/01/12 03:00:15;;;;;;;16.67;10.30;;;;;;;;;;5073322;28;20847;-49
2024/01/12 03:02:41;;;;;;;18.23;10.60;;;;;;;;;;5073317;28;20562;-49
2024/01/12 03:05:08;;;;;;;16.40;9.93;;;;;;;;;;5073059;28;20430;-49
2024/01/12 03:07:34;;;;;;;16.87;10.30;;;;;;;;;;5073282;28;20294;-49
2024/01/12 03:10:00;;;;;;;19.00;10.80;;;;;;;;;;5073334;28;20525;-49
2024/01/12 03:12:27;;;;;;;16.37;9.87;;;;;;;;;;5072929;28;20480;-49
2024/01/12 03:14:53;;;;;;;19.77;11.57;;;;;;;;;;5072895;28;20924;-48
2024/01/12 03:17:20;;;;;;;18.23;10.37;;;;;;;;;;5072763;28;20445;-49
2024/01/12 03:19:46;;;;;;;19.90;11.50;;;;;;;;;;5072909;28;20238;-49
2024/01/12 03:22:12;;;;;;;19.23;11.80;;;;;;;;;;5072843;28;20434;-49
2024/01/12 03:24:38;;;;;;;21.63;11.13;;;;;;;;;;5072828;28;20209;-49
2024/01/12 03:27:04;;;;;;;17.07;11.17;;;;;;;;;;5072660;28;20446;-49
2024/01/12 03:29:32;;;;;;;16.10;9.53;;;;;;;;;;5072791;28;20215;-49
2024/01/12 03:31:58;;;;;;;14.57;9.03;;;;;;;;;;5072791;28;20453;-49
2024/01/12 03:34:24;;;;;;;17.73;9.47;;;;;;;;;;5072434;28;20454;-49
2024/01/12 03:36:50;;;;;;;15.07;8.77;;;;;;;;;;5072534;28;20205;-49
2024/01/12 03:39:16;;;;;;;15.10;9.00;;;;;;;;;;5072582;28;20437;-49
2024/01/12 03:41:42;;;;;;;15.33;9.03;;;;;;;;;;5072701;28;20199;-49
2024/01/12 03:44:08;;;;;;;14.53;8.77;;;;;;;;;;5072343;28;20231;-48
2024/01/12 03:46:36;;;;;;;15.23;9.00;;;;;;;;;;5072430;28;20207;-48
2024/01/12 03:49:03;;;;;;;15.57;9.53;;;;;;;;;;5070703;28;20503;-48
2024/01/12 03:51:28;;;;;;;15.00;9.17;;;;;;;;;;5058736;28;20645;-48
2024/01/12 03:53:55;;;;;;;14.50;9.07;;;;;;;;;;5060105;28;20953;-49
2024/01/12 03:56:21;;;;;;;15.10;8.87;;;;;;;;;;5058512;28;20216;-49
2024/01/12 03:58:46;;;;;;;16.40;9.63;;;;;;;;;;5058438;28;20460;-49
2024/01/12 04:01:12;;;;;;;13.03;8.43;;;;;;;;;;5060124;28;20903;-49
2024/01/12 04:03:40;;;;;;;13.40;8.77;;;;;;;;;;5058358;28;20195;-49
2024/01/12 04:06:09;;;;;;;17.67;9.20;;;;;;;;;;5059898;28;20253;-50
2024/01/12 04:08:35;;;;;;;13.50;8.90;;;;;;;;;;5060017;28;20434;-49
2024/01/12 04:11:01;;;;;;;13.20;9.43;;;;;;;;;;5058215;28;20481;-49
2024/01/12 04:13:27;;;;;;;14.90;9.43;;;;;;;;;;5058331;28;20257;-49
2024/01/12 04:15:53;;;;;;;15.30;9.97;;;;;;;;;;5058338;28;20450;-49
2024/01/12 04:18:20;;;;;;;16.80;9.77;;;;;;;;;;5058055;28;20254;-49
2024/01/12 04:20:47;;;;;;;15.53;9.70;;;;;;;;;;5058360;28;20247;-49
2024/01/12 04:23:13;;;;;;;15.63;9.67;;;;;;;;;;5058342;28;20446;-49
2024/01/12 04:25:39;;;;;;;16.67;9.53;;;;;;;;;;5058289;28;20457;-49
2024/01/12 04:28:05;;;;;;;13.00;9.10;;;;;;;;;;5058083;28;20223;-48
2024/01/12 04:30:31;;;;;;;13.77;8.83;;;;;;;;;;5058049;28;20684;-48
2024/01/12 04:32:57;;;;;;;14.03;9.50;;;;;;;;;;5060040;28;20226;-49
2024/01/12 04:35:23;;;;;;;14.63;8.70;;;;;;;;;;5057941;28;20200;-49
2024/01/12 04:37:50;;;;;;;16.47;9.03;;;;;;;;;;5058034;28;20536;-48
2024/01/12 04:40:16;;;;;;;13.73;8.80;;;;;;;;;;5057982;28;20258;-48
2024/01/12 04:42:42;;;;;;;13.87;9.13;;;;;;;;;;5058145;28;20430;-48
2024/01/12 04:45:08;;;;;;;19.10;9.77;;;;;;;;;;5058083;28;20441;-49
2024/01/12 04:47:34;;;;;;;15.03;9.40;;;;;;;;;;5057934;28;20192;-48
2024/01/12 04:50:00;;;;;;;15.40;9.13;;;;;;;;;;5057941;28;20797;-48
2024/01/12 04:52:26;;;;;;;20.60;10.53;;;;;;;;;;5057887;28;20505;-48
2024/01/12 04:54:54;;;;;;;17.03;9.87;;;;;;;;;;5057845;28;20195;-48
2024/01/12 04:57:20;;;;;;;17.40;10.63;;;;;;;;;;5059357;28;20445;-48
2024/01/12 04:59:46;;;;;;;20.93;11.00;;;;;;;;;;5059916;28;20565;-48
2024/01/12 05:02:12;;;;;;;18.20;10.50;;;;;;;;;;5057758;28;20204;-48
2024/01/12 05:04:37;;;;;;;19.33;11.10;;;;;;;;;;5059541;28;20484;-48
2024/01/12 05:07:04;;;;;;;16.63;10.50;;;;;;;;;;5061782;28;20230;-49
2024/01/12 05:09:30;;;;;;;17.57;11.00;;;;;;;;;;5061724;28;20210;-49
2024/01/12 05:11:59;;;;;;;15.53;9.57;;;;;;;;;;5061670;28;20497;-48
2024/01/12 05:14:26;;;;;;;15.47;9.23;;;;;;;;;;5061542;28;20452;-49
2024/01/12 05:16:51;;;;;;;18.97;10.07;;;;;;;;;;5063158;28;20457;-48
2024/01/12 05:19:17;;;;;;;18.97;10.57;;;;;;;;;;5061548;28;20444;-48
2024/01/12 05:21:43;;;;;;;17.50;10.50;;;;;;;;;;5061649;28;21441;-49
2024/01/12 05:24:10;;;;;;;18.90;11.00;;;;;;;;;;5061482;28;20204;-49
2024/01/12 05:26:36;;;;;;;16.60;10.73;;;;;;;;;;5061378;28;20295;-49
2024/01/12 05:29:04;;;;;;;15.50;9.70;;;;;;;;;;5061408;28;20434;-48
2024/01/12 05:31:30;;;;;;;14.70;10.07;;;;;;;;;;5061396;28;20947;-48
2024/01/12 05:33:56;;;;;;;18.67;10.87;;;;;;;;;;5061334;28;20434;-49
2024/01/12 05:36:22;;;;;;;18.20;10.27;;;;;;;;;;5061206;28;20191;-48
2024/01/12 05:38:48;;;;;;;15.97;10.27;;;;;;;;;;5062957;28;20278;-49
2024/01/12 05:41:14;;;;;;;19.13;10.73;;;;;;;;;;5061107;28;20276;-48
2024/01/12 05:43:40;;;;;;;18.60;9.70;;;;;;;;;;5061099;28;20204;-48
2024/01/12 05:46:07;;;;;;;16.87;10.83;;;;;;;;;;5060884;28;20451;-48
2024/01/12 05:48:33;;;;;;;18.00;10.63;;;;;;;;;;5060820;28;20196;-48
2024/01/12 05:51:00;;;;;;;23.63;11.43;;;;;;;;;;5062678;28;20465;-48
2024/01/12 05:53:26;;;;;;;19.77;11.57;;;;;;;;;;5060748;28;20654;-48
2024/01/12 05:55:52;;;;;;;18.77;11.90;;;;;;;;;;5060921;28;20454;-49
2024/01/12 05:58:18;;;;;;;18.87;11.90;;;;;;;;;;5060731;28;20430;-48
2024/01/12 06:00:44;;;;;;;18.77;12.30;;;;;;;;;;5060890;28;20836;-49
2024/01/12 06:03:12;;;;;;;21.27;12.27;;;;;;;;;;5060772;28;20252;-48
2024/01/12 06:05:38;;;;;;;20.00;11.93;;;;;;;;;;5060634;28;20490;-48
2024/01/12 06:08:05;;;;;;;20.73;12.83;;;;;;;;;;5058937;28;20442;-48
2024/01/12 06:10:31;;;;;;;19.77;12.43;;;;;;;;;;5060691;28;20434;-48
2024/01/12 06:12:57;;;;;;;25.97;13.90;;;;;;;;;;5062293;28;20430;-48
2024/01/12 06:15:23;;;;;;;23.40;13.00;;;;;;;;;;5058543;28;20429;-48
2024/01/12 06:17:49;;;;;;;23.77;13.30;;;;;;;;;;5060160;28;21579;-48
2024/01/12 06:20:16;;;;;;;20.70;13.70;;;;;;;;;;5060950;28;20314;-49
2024/01/12 06:22:43;;;;;;;21.73;14.00;;;;;;;;;;5061922;28;20208;-48
2024/01/12 06:25:09;;;;;;;22.53;15.13;;;;;;;;;;5060355;28;20444;-48
2024/01/12 06:27:35;;;;;;;21.13;14.60;;;;;;;;;;5060370;28;20517;-49
2024/01/12 06:30:00;;;;;;;20.63;14.07;;;;;;;;;;5060518;28;20430;-48
2024/01/12 06:32:26;;;;;;;25.63;14.63;;;;;;;;;;5060256;28;20257;-48
2024/01/12 06:34:52;;;;;;;27.80;15.07;;;;;;;;;;5060294;28;20677;-48
2024/01/12 06:37:20;;;;;;;25.20;14.43;;;;;;;;;;5061581;28;20188;-49
2024/01/12 06:39:46;;;;;;;23.77;14.87;;;;;;;;;;5061472;28;20576;-49
2024/01/12 06:42:12;;;;;;;26.60;15.30;;;;;;;;;;5062155;28;20441;-48
2024/01/12 06:44:40;;;;;;;25.77;15.67;;;;;;;;;;5059962;28;20203;-48
2024/01/12 06:47:07;;;;;;;26.97;16.07;;;;;;;;;;5060035;28;20426;-48
2024/01/12 06:49:33;;;;;;;30.53;17.80;;;;;;;;;;5061364;28;20869;-48
2024/01/12 06:51:59;;;;;;;29.37;17.03;;;;;;;;;;5059942;28;20452;-48
2024/01/12 06:54:26;;;;;;;27.37;16.40;;;;;;;;;;5058092;28;20549;-48
2024/01/12 06:56:56;;;;;;;27.00;16.27;;;;;;;;;;5059812;28;21089;-48
2024/01/12 06:59:22;;;;;;;23.73;16.97;;;;;;;;;;5059681;28;20460;-49
2024/01/12 07:01:48;;;;;;;27.63;16.40;;;;;;;;;;5059631;28;20825;-48
2024/01/12 07:04:13;;;;;;;24.13;15.60;;;;;;;;;;5059598;28;20429;-48
2024/01/12 07:06:39;;;;;;;23.93;15.13;;;;;;;;;;5059612;28;20594;-48
2024/01/12 07:09:06;;;;;;;23.73;15.83;;;;;;;;;;5059533;28;20218;-48
2024/01/12 07:11:34;;;;;;;25.00;16.03;;;;;;;;;;5059416;28;20239;-48
2024/01/12 07:14:00;;;;;;;25.40;15.70;;;;;;;;;;5057822;28;20453;-48
2024/01/12 07:16:26;;;;;;;28.13;16.80;;;;;;;;;;5059314;28;21060;-48
2024/01/12 07:18:52;;;;;;;25.63;16.27;;;;;;;;;;5059035;28;20445;-48
2024/01/12 07:21:18;;;;;;;24.87;16.80;;;;;;;;;;5059029;28;20589;-49
2024/01/12 07:23:44;;;;;;;23.20;16.23;;;;;;;;;;5059291;28;20195;-48
2024/01/12 07:26:10;;;;;;;21.37;15.37;;;;;;;;;;5059213;28;20434;-48
2024/01/12 07:28:37;;;;;;;22.07;15.17;;;;;;;;;;5058462;28;20483;-48
2024/01/12 07:31:03;;;;;;;19.10;13.90;;;;;;;;;;5059030;28;20286;-49
2024/01/12 07:33:29;;;;;;;24.03;14.23;;;;;;;;;;5059082;28;20434;-48
2024/01/12 07:35:55;;;;;;;20.60;14.97;;;;;;;;;;5060612;28;20440;-48
2024/01/12 07:38:21;;;;;;;20.97;14.47;;;;;;;;;;5055867;28;20723;-49
2024/01/12 07:40:47;;;;;;;28.37;14.57;;;;;;;;;;5058852;28;20263;-48
2024/01/12 07:43:13;;;;;;;18.47;13.73;;;;;;;;;;5058644;28;20551;-48
2024/01/12 07:45:40;;;;;;;21.77;13.53;;;;;;;;;;5058119;28;20202;-48
2024/01/12 07:48:07;;;;;;;20.97;13.30;;;;;;;;;;5056624;28;21098;-48
2024/01/12 07:50:34;;;;;;;20.87;14.13;;;;;;;;;;5058516;28;20430;-48
2024/01/12 07:53:00;;;;;;;20.37;13.17;;;;;;;;;;5058864;28;20544;-48
2024/01/12 07:55:27;;;;;;;20.23;13.73;;;;;;;;;;5058467;28;20472;-48
2024/01/12 07:57:53;;;;;;;23.47;14.37;;;;;;;;;;5058522;28;20448;-48
2024/01/12 08:00:19;;;;;;;19.07;12.73;;;;;;;;;;5058386;28;20500;-48
2024/01/12 08:02:46;;;;;;;18.90;13.50;;;;;;;;;;5057498;28;20434;-48
2024/01/12 08:05:12;;;;;;;18.00;12.83;;;;;;;;;;5058390;28;20610;-48
2024/01/12 08:07:39;;;;;;;18.37;13.37;;;;;;;;;;5058433;28;20442;-48
2024/01/12 08:10:05;;;;;;;19.77;13.37;;;;;;;;;;5058334;28;20199;-49
2024/01/12 08:12:31;;;;;;;14.77;12.80;;;;;;;;;;5056327;28;20481;-48
2024/01/12 08:14:57;;;;;;;15.40;12.67;;;;;;;;;;5058324;28;20495;-48
2024/01/12 08:17:23;;;;;;;15.23;12.60;;;;;;;;;;5058052;28;20211;-48
2024/01/12 08:19:51;;;;;;;18.03;12.50;;;;;;;;;;5057929;28;20234;-48
2024/01/12 08:22:17;;;;;;;14.20;11.57;;;;;;;;;;5056436;28;20199;-48
2024/01/12 08:24:43;;;;;;;19.03;13.00;;;;;;;;;;5058501;28;20437;-49
2024/01/12 08:27:08;;;;;;;14.57;11.83;;;;;;;;;;5058141;28;20564;-48
2024/01/12 08:29:34;;;;;;;18.83;12.40;;;;;;;;;;5058177;28;20234;-49
2024/01/12 08:32:00;;;;;;;16.67;11.87;;;;;;;;;;5058233;28;20562;-48
2024/01/12 08:34:26;;;;;;;18.63;12.70;;;;;;;;;;5057960;28;20256;-48
2024/01/12 08:36:54;;;;;;;17.07;13.13;;;;;;;;;;5057106;28;20602;-48
2024/01/12 08:39:20;;;;;;;14.03;12.53;;;;;;;;;;5057613;28;20446;-48
2024/01/12 08:41:46;;;;;;;19.73;12.80;;;;;;;;;;5057596;28;20480;-48
2024/01/12 08:44:12;;;;;;;15.03;12.23;;;;;;;;;;5058203;28;20188;-48
2024/01/12 08:46:38;;;;;;;16.10;11.97;;;;;;;;;;5057654;28;20441;-49
2024/01/12 08:49:04;;;;;;;17.57;12.77;;;;;;;;;;5057816;28;20456;-47
2024/01/12 08:51:30;;;;;;;15.50;12.50;;;;;;;;;;5057841;28;20457;-48
2024/01/12 08:53:57;;;;;;;16.87;11.67;;;;;;;;;;5057875;28;20932;-47
2024/01/12 08:56:23;;;;;;;13.87;11.40;;;;;;;;;;5057883;28;20211;-48
2024/01/12 08:58:49;;;;;;;14.23;11.47;;;;;;;;;;5057907;28;20434;-49
2024/01/12 09:01:15;;;;;;;14.73;10.67;;;;;;;;;;5057777;28;20289;-47
2024/01/12 09:03:41;;;;;;;13.27;10.87;;;;;;;;;;5057565;28;20282;-49
2024/01/12 09:06:07;;;;;;;15.63;11.03;;;;;;;;;;5056072;28;20210;-49
2024/01/12 09:08:33;;;;;;;12.53;11.20;;;;;;;;;;5056411;28;20195;-47
2024/01/12 09:11:02;;;;;;;18.27;12.87;;;;;;;;;;5057747;28;20470;-47
2024/01/12 09:13:28;;;;;;;18.53;12.60;;;;;;;;;;5071637;28;20624;-47
2024/01/12 09:15:54;;;;;;;18.03;13.73;;;;;;;;;;5071323;28;20465;-47
2024/01/12 09:18:20;;;;;;;21.37;14.37;;;;;;;;;;5071604;28;20242;-47
2024/01/12 09:20:46;;;;;;;20.60;15.53;;;;;;;;;;5071334;28;20258;-47
2024/01/12 09:23:12;;;;;;;26.17;15.37;;;;;;;;;;5071332;28;20199;-47
2024/01/12 09:25:37;;;;;;;24.87;16.73;;;;;;;;;;5071238;28;20195;-47
2024/01/12 09:28:05;;;;;;;26.90;16.67;;;;;;;;;;5071254;28;20712;-47
2024/01/12 09:30:31;;;;;;;21.47;16.50;;;;;;;;;;5071093;28;20199;-48
2024/01/12 09:32:57;;;;;;;23.63;16.10;;;;;;;;;;5071356;28;20472;-47
2024/01/12 09:35:23;;;;;;;22.50;16.40;;;;;;;;;;5070789;28;20287;-48
2024/01/12 09:37:49;;;;;;;19.87;15.47;;;;;;;;;;5071149;28;20223;-50
2024/01/12 09:40:17;;;;;;;20.07;14.53;;;;;;;;;;5071282;28;20818;-48
2024/01/12 09:42:44;;;;;;;21.00;15.13;;;;;;;;;;5071071;28;20430;-48
2024/01/12 09:45:12;;;;;;;22.07;15.33;;;;;;;;;;5070918;28;21082;-49
2024/01/12 09:47:39;;;;;;;19.20;14.30;;;;;;;;;;5070593;28;20457;-48
2024/01/12 09:50:06;;;;;;;19.70;14.23;;;;;;;;;;5070803;28;20800;-48
2024/01/12 09:52:32;;;;;;;20.30;13.80;;;;;;;;;;5073629;28;20502;-48
2024/01/12 09:54:58;;;;;;;21.23;13.53;;;;;;;;;;5075019;28;20932;-48
2024/01/12 09:57:24;;;;;;;17.43;14.40;;;;;;;;;;5074683;28;20438;-48
2024/01/12 09:59:51;;;;;;;20.87;14.77;;;;;;;;;;5074744;28;20210;-48
2024/01/12 10:02:18;;;;;;;21.10;14.33;;;;;;;;;;5074646;28;20434;-48
2024/01/12 10:04:44;;;;;;;22.67;14.50;;;;;;;;;;5074636;28;20453;-48
2024/01/12 10:07:10;;;;;;;19.03;13.73;;;;;;;;;;5069546;28;20523;-49
2024/01/12 10:09:36;;;;;;;17.43;13.83;;;;;;;;;;5060815;28;20227;-48
2024/01/12 10:12:02;;;;;;;20.97;14.83;;;;;;;;;;5060611;28;20231;-48
2024/01/12 10:14:28;;;;;;;24.43;14.30;;;;;;;;;;5060692;28;20211;-47
2024/01/12 10:16:54;;;;;;;23.27;14.50;;;;;;;;;;5060234;28;20462;-49
2024/01/12 10:19:22;;;;;;;20.37;13.80;;;;;;;;;;5060544;28;20195;-49
2024/01/12 10:21:48;;;;;;;18.33;12.83;;;;;;;;;;5062409;28;20558;-53
2024/01/12 10:24:17;;;;;;;22.17;13.33;;;;;;;;;;5067821;28;20939;-52
2024/01/12 10:26:43;;;;;;;19.10;14.00;;;;;;;;;;5073958;28;20441;-52
2024/01/12 10:29:09;;;;;;;18.83;14.17;;;;;;;;;;5073831;28;20437;-52
2024/01/12 10:31:39;;;;;;;21.47;14.20;;;;;;;;;;5073828;28;20446;-52
2024/01/12 10:34:05;;;;;;;20.60;14.43;;;;;;;;;;5073968;28;20430;-52
2024/01/12 10:36:34;;;;;;;22.13;15.07;;;;;;;;;;5073836;28;20453;-52
2024/01/12 10:39:03;;;;;;;24.00;15.43;;;;;;;;;;5073832;28;20796;-50
2024/01/12 10:41:29;;;;;;;19.77;14.90;;;;;;;;;;5073423;28;20523;-52
2024/01/12 10:43:58;;;;;;;20.97;15.20;;;;;;;;;;5073941;28;20444;-51
2024/01/12 10:46:30;;;;;;;22.13;15.10;;;;;;;;;;5073745;28;20925;-51
2024/01/12 10:49:02;;;;;;;19.37;14.93;;;;;;;;;;5073600;28;21009;-51
2024/01/12 10:51:33;;;;;;;18.23;14.07;;;;;;;;;;5072993;28;20431;-52
2024/01/12 10:54:05;;;;;;;19.57;13.70;;;;;;;;;;5073266;28;20495;-53
2024/01/12 10:56:35;;;;;;;22.90;14.53;;;;;;;;;;5073446;28;20536;-49
2024/01/12 10:59:01;;;;;;;19.23;13.30;;;;;;;;;;5073193;28;20912;-50
2024/01/12 11:01:27;;;;;;;21.17;13.67;;;;;;;;;;5073155;28;20485;-50
2024/01/12 11:03:54;;;;;;;19.93;15.07;;;;;;;;;;5072235;28;20460;-50
2024/01/12 11:06:20;;;;;;;20.37;15.57;;;;;;;;;;5073456;28;20466;-50
2024/01/12 11:08:50;;;;;;;23.83;16.37;;;;;;;;;;5073317;28;20473;-50
2024/01/12 11:11:18;;;;;;;21.90;15.97;;;;;;;;;;5069597;28;20236;-51
2024/01/12 11:13:45;;;;;;;22.17;15.23;;;;;;;;;;5073405;28;20711;-51
2024/01/12 11:16:11;;;;;;;20.63;15.00;;;;;;;;;;5073265;28;20444;-51
2024/01/12 11:18:37;;;;;;;25.53;16.37;;;;;;;;;;5072978;28;20529;-50
2024/01/12 11:21:04;;;;;;;29.67;18.07;;;;;;;;;;5073016;28;20837;-50
2024/01/12 11:23:38;;;;;;;24.70;15.27;;;;;;;;;;5073326;28;20520;-50
2024/01/12 11:26:04;;;;;;;20.97;14.97;;;;;;;;;;5073065;28;20913;-50
2024/01/12 11:28:37;;;;;;;21.77;13.80;;;;;;;;;;5073122;28;20843;-50
2024/01/12 11:31:03;;;;;;;18.07;13.93;;;;;;;;;;5072904;28;20854;-50
2024/01/12 11:33:29;;;;;;;19.13;13.27;;;;;;;;;;5072892;28;20785;-50
2024/01/12 11:35:55;;;;;;;22.13;14.00;;;;;;;;;;5072793;28;20517;-50
2024/01/12 11:38:21;;;;;;;26.50;14.03;;;;;;;;;;5072879;28;20908;-50
2024/01/12 11:40:48;;;;;;;20.17;14.13;;;;;;;;;;5072697;28;20244;-50
2024/01/12 11:43:16;;;;;;;20.80;13.70;;;;;;;;;;5073057;28;20807;-50
2024/01/12 11:45:44;;;;;;;21.37;13.90;;;;;;;;;;5072586;28;20430;-50
2024/01/12 11:48:14;;;;;;;24.73;14.90;;;;;;;;;;5072599;28;20440;-49
2024/01/12 11:50:41;;;;;;;19.93;13.83;;;;;;;;;;5072760;28;20426;-50
2024/01/12 11:53:08;;;;;;;20.63;13.70;;;;;;;;;;5072598;28;20468;-50
2024/01/12 11:55:36;;;;;;;22.23;15.43;;;;;;;;;;5072428;28;20936;-50
2024/01/12 11:58:02;;;;;;;17.50;13.93;;;;;;;;;;5072558;28;20441;-50
2024/01/12 12:00:28;;;;;;;22.87;14.20;;;;;;;;;;5072475;28;20511;-50
2024/01/12 12:02:56;;;;;;;21.63;14.23;;;;;;;;;;5072201;28;20442;-51
2024/01/12 12:05:22;;;;;;;22.80;14.77;;;;;;;;;;5072387;28;20214;-50
2024/01/12 12:07:48;;;;;;;19.23;13.80;;;;;;;;;;5072222;28;20438;-51
2024/01/12 12:10:14;;;;;;;18.30;13.43;;;;;;;;;;5072201;28;20456;-50
2024/01/12 12:12:40;;;;;;;22.23;13.13;;;;;;;;;;5072058;28;20231;-50
2024/01/12 12:15:07;;;;;;;18.07;13.30;;;;;;;;;;5072161;28;20215;-51
2024/01/12 12:17:35;;;;;;;18.10;13.07;;;;;;;;;;5072000;28;20465;-50
2024/01/12 12:20:03;;;;;;;20.30;13.77;;;;;;;;;;5072109;28;20445;-50
2024/01/12 12:22:30;;;;;;;17.20;13.20;;;;;;;;;;5072127;28;20951;-51
2024/01/12 12:24:56;;;;;;;18.40;13.03;;;;;;;;;;5072215;28;20438;-50
2024/01/12 12:27:23;;;;;;;16.33;12.50;;;;;;;;;;5071864;28;21017;-51
2024/01/12 12:29:50;;;;;;;19.57;13.30;;;;;;;;;;5071696;28;20207;-50
2024/01/12 12:32:15;;;;;;;26.23;17.57;;;;;;;;;;5072016;28;20440;-50
2024/01/12 12:34:45;;;;;;;17.03;12.83;;;;;;;;;;5071815;28;20434;-50
2024/01/12 12:37:13;;;;;;;17.07;12.30;;;;;;;;;;5071846;28;20290;-51
2024/01/12 12:39:39;;;;;;;15.13;11.90;;;;;;;;;;5071788;28;20472;-52
2024/01/12 12:42:06;;;;;;;19.23;13.33;;;;;;;;;;5071861;28;20485;-49
2024/01/12 12:44:32;;;;;;;18.17;13.43;;;;;;;;;;5072040;28;20469;-51
2024/01/12 12:46:58;;;;;;;16.83;12.50;;;;;;;;;;5071803;28;20546;-51
2024/01/12 12:49:30;;;;;;;14.63;11.40;;;;;;;;;;5071676;28;20426;-50
2024/01/12 12:51:56;;;;;;;15.10;10.67;;;;;;;;;;5071664;28;20422;-50
2024/01/12 12:54:27;;;;;;;16.17;10.93;;;;;;;;;;5071662;28;20432;-50
2024/01/12 12:56:53;;;;;;;15.53;11.03;;;;;;;;;;5071633;28;20204;-50
2024/01/12 12:59:19;;;;;;;16.20;12.30;;;;;;;;;;5071767;28;20434;-51
2024/01/12 13:01:45;;;;;;;16.73;12.77;;;;;;;;;;5071504;28;20473;-50
2024/01/12 13:04:11;;;;;;;19.70;13.73;;;;;;;;;;5071839;28;20925;-50
2024/01/12 13:06:37;;;;;;;17.00;11.57;;;;;;;;;;5071663;28;20195;-50
2024/01/12 13:09:06;;;;;;;17.23;13.20;;;;;;;;;;5071601;28;20479;-51
2024/01/12 13:11:33;;;;;;;20.47;15.37;;;;;;;;;;5071622;28;20242;-52
2024/01/12 13:13:59;;;;;;;17.47;13.73;;;;;;;;;;5071637;28;20434;-52
2024/01/12 13:16:25;;;;;;;17.97;12.50;;;;;;;;;;5071560;28;20446;-51
2024/01/12 13:18:53;;;;;;;16.50;12.90;;;;;;;;;;5068712;28;20524;-52
2024/01/12 13:21:19;;;;;;;17.53;13.00;;;;;;;;;;5069892;28;20251;-51
2024/01/12 13:23:46;;;;;;;18.33;12.27;;;;;;;;;;5071389;28;20442;-51
2024/01/12 13:26:12;;;;;;;21.27;12.37;;;;;;;;;;5072280;28;20430;-51
2024/01/12 13:28:40;;;;;;;18.87;12.97;;;;;;;;;;5075031;28;20448;-51
2024/01/12 13:31:06;;;;;;;19.10;12.53;;;;;;;;;;5073102;28;20499;-54
2024/01/12 13:33:32;;;;;;;18.93;13.10;;;;;;;;;;5075092;28;20591;-53
2024/01/12 13:35:58;;;;;;;20.30;12.87;;;;;;;;;;5073068;28;20507;-53
2024/01/12 13:38:24;;;;;;;22.33;14.10;;;;;;;;;;5075152;28;20936;-53
2024/01/12 13:40:50;;;;;;;22.13;13.50;;;;;;;;;;5074391;28;20226;-54
2024/01/12 13:43:17;;;;;;;17.97;13.20;;;;;;;;;;5072900;28;20466;-53
2024/01/12 13:45:44;;;;;;;23.47;13.73;;;;;;;;;;5075032;28;20483;-54
2024/01/12 13:48:11;;;;;;;21.10;14.00;;;;;;;;;;5074879;28;20448;-53
2024/01/12 13:50:37;;;;;;;22.73;16.77;;;;;;;;;;5074753;28;20985;-53
2024/01/12 13:53:03;;;;;;;19.53;13.77;;;;;;;;;;5075002;28;20445;-54
2024/01/12 13:55:29;;;;;;;22.93;14.47;;;;;;;;;;5075103;28;20472;-53
2024/01/12 13:57:55;;;;;;;22.90;13.93;;;;;;;;;;5074788;28;20536;-54
2024/01/12 14:00:21;;;;;;;22.73;14.13;;;;;;;;;;5074810;28;20529;-53
2024/01/12 14:02:49;;;;;;;23.17;14.43;;;;;;;;;;5074635;28;20735;-54
2024/01/12 14:05:18;;;;;;;27.27;15.27;;;;;;;;;;5074944;28;20204;-55
2024/01/12 14:07:45;;;;;;;20.97;15.07;;;;;;;;;;5070818;28;20952;-54
2024/01/12 14:10:11;;;;;;;22.60;14.93;;;;;;;;;;5072441;28;20936;-53
2024/01/12 14:12:37;;;;;;;22.00;14.77;;;;;;;;;;5073881;28;20483;-54
2024/01/12 14:15:04;;;;;;;20.03;14.33;;;;;;;;;;5074017;28;20488;-56